Time;durP1;ratioP1;P1;durP2;ratioP2;P2;SDS_P1;SDS_P2;PMS_P1;PMS_P2;Temp;Humidity;BMP_temperature;BMP_pressure;BME280_temperature;BME280_humidity;BME280_pressure;Samples;Min_cycle;Max_cycle;Signal;HPM_P1;HPM_P2
2022/02/16 00:01:52;;;;;;;;;;;22.80;35.60;;;;;;5040827;28;19905;-47
2022/02/16 00:04:18;;;;;;;;;;;22.80;35.70;;;;;;5043739;28;20299;-47
2022/02/16 00:06:44;;;;;;;;;;;22.80;35.70;;;;;;5036383;28;19905;-48
2022/02/16 00:09:10;;;;;;;;;;;22.70;35.60;;;;;;5042300;28;19905;-45
2022/02/16 00:11:36;;;;;;;;;;;22.70;36.30;;;;;;5043386;28;19905;-43
2022/02/16 00:14:01;;;;;;;;;;;22.70;35.70;;;;;;5046122;28;19904;-47
2022/02/16 00:16:27;;;;;;;;;;;22.70;35.70;;;;;;5037541;28;19912;-45
2022/02/16 00:18:53;;;;;;;;;;;22.70;35.80;;;;;;5037579;28;19904;-45
2022/02/16 00:21:18;;;;;;;;;;;22.80;35.90;;;;;;5040127;28;19917;-46
2022/02/16 00:23:44;;;;;;;;;;;22.70;35.80;;;;;;5040595;28;19912;-46
2022/02/16 00:26:10;;;;;;;;;;;22.70;35.80;;;;;;5043252;28;19952;-44
2022/02/16 00:28:35;;;;;;;;;;;22.70;35.80;;;;;;5045245;28;19912;-43
2022/02/16 00:31:01;;;;;;;;;;;22.70;35.90;;;;;;5044433;28;19955;-46
2022/02/16 00:33:28;;;;;;;;;;;22.70;35.90;;;;;;5043075;28;19923;-47
2022/02/16 00:35:54;;;;;;;;;;;22.60;35.90;;;;;;5044927;28;19917;-48
2022/02/16 00:38:19;;;;;;;;;;;22.60;35.90;;;;;;5041188;28;19909;-44
2022/02/16 00:40:46;;;;;;;;;;;22.60;35.90;;;;;;5024223;28;19948;-43
2022/02/16 00:43:12;;;;;;;;;;;22.60;35.90;;;;;;5042491;28;20300;-46
2022/02/16 00:45:37;;;;;;;;;;;22.60;35.90;;;;;;5041345;28;20228;-47
2022/02/16 00:48:03;;;;;;;;;;;22.60;36.00;;;;;;5052800;28;19959;-49
2022/02/16 00:50:34;;;;;;;;;;;22.60;36.00;;;;;;5032295;28;19959;-49
2022/02/16 00:53:00;;;;;;;;;;;22.60;36.10;;;;;;5025986;28;19925;-48
2022/02/16 00:55:28;;;;;;;;;;;22.60;36.10;;;;;;5042803;28;19912;-48
2022/02/16 00:57:54;;;;;;;;;;;22.60;36.10;;;;;;5047569;28;19912;-45
2022/02/16 01:00:23;;;;;;;;;;;22.60;36.10;;;;;;5028291;28;19935;-44
2022/02/16 01:02:53;;;;;;;;;;;22.60;36.10;;;;;;5024297;28;19905;-45
2022/02/16 01:05:19;;;;;;;;;;;22.60;36.10;;;;;;5024682;28;19975;-51
2022/02/16 01:07:45;;;;;;;;;;;22.60;36.10;;;;;;5022150;28;19905;-46
2022/02/16 01:10:13;;;;;;;;;;;22.60;36.20;;;;;;5026177;28;20066;-43
2022/02/16 01:12:45;;;;;;;;;;;22.60;36.20;;;;;;5023394;28;20004;-47
2022/02/16 01:15:11;;;;;;;;;;;22.60;36.20;;;;;;5024638;28;20034;-48
2022/02/16 01:17:41;;;;;;;;;;;22.60;36.20;;;;;;5027704;28;19919;-50
2022/02/16 01:20:11;;;;;;;;;;;22.50;36.20;;;;;;5024316;28;19909;-48
2022/02/16 01:22:39;;;;;;;;;;;22.50;36.20;;;;;;5027784;28;19975;-44
2022/02/16 01:25:13;;;;;;;;;;;22.50;36.30;;;;;;5021466;28;20312;-47
2022/02/16 01:27:40;;;;;;;;;;;22.50;36.30;;;;;;5024875;28;19906;-46
2022/02/16 01:30:06;;;;;;;;;;;22.50;36.30;;;;;;5029586;28;19927;-45
2022/02/16 01:32:40;;;;;;;;;;;22.50;36.30;;;;;;5023918;28;20412;-47
2022/02/16 01:35:06;;;;;;;;;;;22.50;36.40;;;;;;5028464;28;20000;-46
2022/02/16 01:37:32;;;;;;;;;;;22.50;36.40;;;;;;5022489;28;19995;-48
2022/02/16 01:39:58;;;;;;;;;;;22.50;36.40;;;;;;5027039;28;19910;-46
2022/02/16 01:42:25;;;;;;;;;;;22.40;36.30;;;;;;5027759;28;19909;-46
2022/02/16 01:44:57;;;;;;;;;;;22.50;36.40;;;;;;5026059;28;19905;-44
2022/02/16 01:47:23;;;;;;;;;;;22.40;36.40;;;;;;5027078;28;19982;-44
2022/02/16 01:49:50;;;;;;;;;;;22.40;36.40;;;;;;5027471;28;20321;-46
2022/02/16 01:52:19;;;;;;;;;;;22.40;36.50;;;;;;5027895;28;20340;-45
2022/02/16 01:54:47;;;;;;;;;;;22.40;36.50;;;;;;5031406;28;19921;-45
2022/02/16 01:57:13;;;;;;;;;;;22.40;36.50;;;;;;5025470;28;20020;-46
2022/02/16 01:59:44;;;;;;;;;;;22.40;36.50;;;;;;5021274;28;20344;-48
2022/02/16 02:02:28;;;;;;;;;;;22.40;36.50;;;;;;5021725;28;19915;-43
2022/02/16 02:05:00;;;;;;;;;;;22.40;36.50;;;;;;5021148;28;20221;-47
2022/02/16 02:07:26;;;;;;;;;;;22.40;36.50;;;;;;5023609;28;19907;-44
2022/02/16 02:09:52;;;;;;;;;;;22.40;36.60;;;;;;5017747;28;19906;-46
2022/02/16 02:12:20;;;;;;;;;;;22.40;36.60;;;;;;5026930;28;19913;-44
2022/02/16 02:14:53;;;;;;;;;;;22.40;36.60;;;;;;5025115;28;20320;-45
2022/02/16 02:17:34;;;;;;;;;;;22.30;36.60;;;;;;5025364;28;19905;-47
2022/02/16 02:20:01;;;;;;;;;;;22.30;36.60;;;;;;5023895;28;19906;-46
2022/02/16 02:22:27;;;;;;;;;;;22.30;36.60;;;;;;5017941;28;20235;-44
2022/02/16 02:24:52;;;;;;;;;;;22.30;36.60;;;;;;5028063;28;19905;-46
2022/02/16 02:27:18;;;;;;;;;;;22.30;36.60;;;;;;5024871;28;20331;-45
2022/02/16 02:29:44;;;;;;;;;;;22.30;36.60;;;;;;5023550;28;19916;-47
2022/02/16 02:32:14;;;;;;;;;;;22.30;36.60;;;;;;5045668;28;19968;-51
2022/02/16 02:34:40;;;;;;;;;;;22.30;36.60;;;;;;5023649;28;19905;-50
2022/02/16 02:37:06;;;;;;;;;;;22.30;36.70;;;;;;5019699;28;19967;-52
2022/02/16 02:39:31;;;;;;;;;;;22.30;36.70;;;;;;5032667;28;19948;-49
2022/02/16 02:41:57;;;;;;;;;;;22.20;36.60;;;;;;5024356;28;20587;-52
2022/02/16 02:44:23;;;;;;;;;;;22.20;36.60;;;;;;5026046;28;19941;-52
2022/02/16 02:46:49;;;;;;;;;;;22.20;36.60;;;;;;5018659;28;19979;-43
2022/02/16 02:49:18;;;;;;;;;;;22.20;36.70;;;;;;5023668;28;19905;-46
2022/02/16 02:51:45;;;;;;;;;;;22.20;36.70;;;;;;5021452;28;20236;-45
2022/02/16 02:54:13;;;;;;;;;;;22.20;36.70;;;;;;5026528;28;19977;-45
2022/02/16 02:56:41;;;;;;;;;;;22.20;36.70;;;;;;5025077;28;19919;-46
2022/02/16 02:59:06;;;;;;;;;;;22.20;36.70;;;;;;5024951;28;19906;-44
2022/02/16 03:01:32;;;;;;;;;;;22.20;36.70;;;;;;5029035;28;19916;-47
2022/02/16 03:03:58;;;;;;;;;;;22.20;36.80;;;;;;5019650;28;19992;-45
2022/02/16 03:06:26;;;;;;;;;;;22.20;36.80;;;;;;5020466;28;19995;-45
2022/02/16 03:08:52;;;;;;;;;;;22.10;36.70;;;;;;5021291;28;19909;-44
2022/02/16 03:11:19;;;;;;;;;;;22.20;36.80;;;;;;5028484;28;20286;-48
2022/02/16 03:13:47;;;;;;;;;;;22.20;36.80;;;;;;5022840;28;20019;-46
2022/02/16 03:16:21;;;;;;;;;;;22.20;36.80;;;;;;5017149;28;19952;-44
2022/02/16 03:18:47;;;;;;;;;;;22.20;36.80;;;;;;5025568;28;20341;-43
2022/02/16 03:21:13;;;;;;;;;;;22.10;36.80;;;;;;5027090;28;19905;-44
2022/02/16 03:23:40;;;;;;;;;;;22.10;36.80;;;;;;5021804;28;19944;-49
2022/02/16 03:26:05;;;;;;;;;;;22.10;36.80;;;;;;5025441;28;20351;-49
2022/02/16 03:28:34;;;;;;;;;;;22.10;36.80;;;;;;5020603;28;19905;-45
2022/02/16 03:31:07;;;;;;;;;;;22.10;36.90;;;;;;5025759;28;19949;-50
2022/02/16 03:33:37;;;;;;;;;;;22.10;36.90;;;;;;5018674;28;19925;-50
2022/02/16 03:36:03;;;;;;;;;;;22.10;36.90;;;;;;5024472;28;19912;-48
2022/02/16 03:38:28;;;;;;;;;;;22.10;37.00;;;;;;5030249;28;19905;-44
2022/02/16 03:40:54;;;;;;;;;;;22.10;37.00;;;;;;5028337;28;19905;-48
2022/02/16 03:43:20;;;;;;;;;;;22.10;37.00;;;;;;5020395;28;19928;-47
2022/02/16 03:45:46;;;;;;;;;;;22.10;37.00;;;;;;5024086;28;19909;-48
2022/02/16 03:48:12;;;;;;;;;;;22.10;37.10;;;;;;5029582;28;19905;-47
2022/02/16 03:50:38;;;;;;;;;;;22.10;37.00;;;;;;5029191;28;20008;-46
2022/02/16 03:53:04;;;;;;;;;;;22.10;37.00;;;;;;5022816;28;20287;-50
2022/02/16 03:55:29;;;;;;;;;;;22.10;37.00;;;;;;5021112;28;19948;-46
2022/02/16 03:57:55;;;;;;;;;;;22.10;37.10;;;;;;5023684;28;20335;-48
2022/02/16 04:00:22;;;;;;;;;;;22.00;37.00;;;;;;5027593;28;19913;-48
2022/02/16 04:02:52;;;;;;;;;;;22.00;37.00;;;;;;5025388;28;19916;-48
2022/02/16 04:05:18;;;;;;;;;;;22.00;37.10;;;;;;5021959;28;19909;-49
2022/02/16 04:07:45;;;;;;;;;;;22.00;37.10;;;;;;5024808;28;19944;-45
2022/02/16 04:10:13;;;;;;;;;;;22.00;37.10;;;;;;5022443;28;20233;-49
2022/02/16 04:12:39;;;;;;;;;;;22.00;37.10;;;;;;5018642;28;19967;-47
2022/02/16 04:15:05;;;;;;;;;;;22.00;37.10;;;;;;5021028;28;19952;-45
2022/02/16 04:17:34;;;;;;;;;;;22.00;37.10;;;;;;5024491;28;19905;-47
2022/02/16 04:20:03;;;;;;;;;;;22.00;37.10;;;;;;5031060;28;19905;-46
2022/02/16 04:22:29;;;;;;;;;;;22.00;37.10;;;;;;5029960;28;19905;-48
2022/02/16 04:24:55;;;;;;;;;;;22.00;37.10;;;;;;5035581;28;20356;-46
2022/02/16 04:27:22;;;;;;;;;;;22.00;37.10;;;;;;5027186;28;19909;-47
2022/02/16 04:29:47;;;;;;;;;;;21.90;37.10;;;;;;5026329;28;19916;-47
2022/02/16 04:32:13;;;;;;;;;;;22.00;37.20;;;;;;5028261;28;20360;-46
2022/02/16 04:34:39;;;;;;;;;;;21.90;37.10;;;;;;5030538;28;19996;-46
2022/02/16 04:37:05;;;;;;;;;;;22.00;37.20;;;;;;5034733;28;21750;-45
2022/02/16 04:39:33;;;;;;;;;;;22.00;37.20;;;;;;5029504;28;19916;-49
2022/02/16 04:41:59;;;;;;;;;;;22.00;37.20;;;;;;5028376;28;20012;-47
2022/02/16 04:44:25;;;;;;;;;;;21.90;37.10;;;;;;5027963;28;19984;-48
2022/02/16 04:47:02;;;;;;;;;;;21.90;37.20;;;;;;5029748;28;19909;-47
2022/02/16 04:49:27;;;;;;;;;;;21.90;37.20;;;;;;5022355;28;20214;-46
2022/02/16 04:51:54;;;;;;;;;;;21.90;37.20;;;;;;5036224;28;19928;-44
2022/02/16 04:54:21;;;;;;;;;;;21.90;37.20;;;;;;5028629;28;19917;-46
2022/02/16 04:56:46;;;;;;;;;;;21.90;37.20;;;;;;5024150;28;20340;-47
2022/02/16 04:59:12;;;;;;;;;;;21.90;37.20;;;;;;5031953;28;20320;-46
2022/02/16 05:01:38;;;;;;;;;;;21.90;37.20;;;;;;5033246;28;19916;-47
2022/02/16 05:04:05;;;;;;;;;;;21.90;37.30;;;;;;5031085;28;19912;-45
2022/02/16 05:06:32;;;;;;;;;;;21.90;37.30;;;;;;5034060;28;19909;-48
2022/02/16 05:08:58;;;;;;;;;;;21.90;37.30;;;;;;5029486;28;19904;-46
2022/02/16 05:11:24;;;;;;;;;;;21.90;37.30;;;;;;5032688;28;19913;-47
2022/02/16 05:14:00;;;;;;;;;;;21.90;37.30;;;;;;5030874;28;19925;-54
2022/02/16 05:16:27;;;;;;;;;;;21.80;37.30;;;;;;5035061;28;19969;-48
2022/02/16 05:18:59;;;;;;;;;;;21.80;37.30;;;;;;5035982;28;19924;-46
2022/02/16 05:21:26;;;;;;;;;;;21.80;37.90;;;;;;5030079;28;19915;-46
2022/02/16 05:23:53;;;;;;;;;;;21.80;37.40;;;;;;5044895;28;19905;-48
2022/02/16 05:26:19;;;;;;;;;;;21.80;37.40;;;;;;5028389;28;19928;-46
2022/02/16 05:28:45;;;;;;;;;;;21.80;37.40;;;;;;5028686;28;19963;-44
2022/02/16 05:31:11;;;;;;;;;;;21.80;37.40;;;;;;5029123;28;20236;-46
2022/02/16 05:33:38;;;;;;;;;;;21.80;37.40;;;;;;5024922;28;19959;-49
2022/02/16 05:36:07;;;;;;;;;;;21.80;37.40;;;;;;5029191;28;19904;-45
2022/02/16 05:38:35;;;;;;;;;;;21.80;37.50;;;;;;5026237;28;19927;-46
2022/02/16 05:41:00;;;;;;;;;;;21.80;37.50;;;;;;5035179;28;19908;-50
2022/02/16 05:43:26;;;;;;;;;;;21.80;37.50;;;;;;5024297;28;20320;-46
2022/02/16 05:45:53;;;;;;;;;;;21.80;37.50;;;;;;5019720;28;19905;-48
2022/02/16 05:48:21;;;;;;;;;;;21.80;37.50;;;;;;5024897;28;19915;-49
2022/02/16 05:50:52;;;;;;;;;;;21.80;37.50;;;;;;5032505;28;19912;-48
2022/02/16 05:53:18;;;;;;;;;;;21.70;37.50;;;;;;5032982;28;19913;-45
2022/02/16 05:55:44;;;;;;;;;;;21.80;37.60;;;;;;5047977;28;20231;-45
2022/02/16 05:58:10;;;;;;;;;;;21.70;37.50;;;;;;5030006;28;19908;-48
2022/02/16 06:00:36;;;;;;;;;;;21.70;37.60;;;;;;5037062;28;20332;-46
2022/02/16 06:03:03;;;;;;;;;;;21.70;37.60;;;;;;5023627;28;20324;-46
2022/02/16 06:05:29;;;;;;;;;;;21.70;37.60;;;;;;5020412;28;19916;-45
2022/02/16 06:07:54;;;;;;;;;;;21.70;37.60;;;;;;5023682;28;19905;-46
2022/02/16 06:10:20;;;;;;;;;;;21.70;37.60;;;;;;5023915;28;19995;-46
2022/02/16 06:12:46;;;;;;;;;;;21.70;37.70;;;;;;5026510;28;19923;-50
2022/02/16 06:15:11;;;;;;;;;;;21.80;37.80;;;;;;5034068;28;19935;-47
2022/02/16 06:17:40;;;;;;;;;;;21.70;37.70;;;;;;5033184;28;19978;-49
2022/02/16 06:20:07;;;;;;;;;;;21.70;37.70;;;;;;5042907;28;19905;-48
2022/02/16 06:22:34;;;;;;;;;;;21.70;37.80;;;;;;5041420;28;20271;-44
2022/02/16 06:25:00;;;;;;;;;;;21.70;37.80;;;;;;5027333;28;19904;-46
2022/02/16 06:27:26;;;;;;;;;;;21.70;37.80;;;;;;5035574;28;19940;-51
2022/02/16 06:29:52;;;;;;;;;;;21.70;37.80;;;;;;5017584;28;19952;-48
2022/02/16 06:32:35;;;;;;;;;;;21.70;37.80;;;;;;5046693;28;19927;-52
2022/02/16 06:35:03;;;;;;;;;;;21.70;37.90;;;;;;5035136;28;19912;-54
2022/02/16 06:37:28;;;;;;;;;;;21.70;37.90;;;;;;5032496;28;20646;-46
2022/02/16 06:39:55;;;;;;;;;;;21.70;37.90;;;;;;5043038;28;20316;-44
2022/02/16 06:42:24;;;;;;;;;;;21.70;37.90;;;;;;5022489;28;19915;-45
2022/02/16 06:44:50;;;;;;;;;;;21.60;37.90;;;;;;5035220;28;19904;-49
2022/02/16 06:47:18;;;;;;;;;;;21.60;37.90;;;;;;5035407;28;19955;-44
2022/02/16 06:49:44;;;;;;;;;;;21.70;38.00;;;;;;5033136;28;20235;-47
2022/02/16 06:52:11;;;;;;;;;;;21.70;38.00;;;;;;5036124;28;19927;-43
2022/02/16 06:54:37;;;;;;;;;;;21.60;38.00;;;;;;5024456;28;19916;-43
2022/02/16 06:57:03;;;;;;;;;;;21.60;38.00;;;;;;5020714;28;19905;-45
2022/02/16 06:59:35;;;;;;;;;;;21.60;38.10;;;;;;5029823;28;19923;-44
2022/02/16 07:02:05;;;;;;;;;;;21.60;38.10;;;;;;5026635;28;19988;-47
2022/02/16 07:04:31;;;;;;;;;;;21.60;38.10;;;;;;5020122;28;19943;-47
2022/02/16 07:06:57;;;;;;;;;;;21.60;38.10;;;;;;5019540;28;19915;-45
2022/02/16 07:09:24;;;;;;;;;;;21.60;38.20;;;;;;5028221;28;19916;-47
2022/02/16 07:11:52;;;;;;;;;;;21.60;38.20;;;;;;5027251;28;19905;-47
2022/02/16 07:14:22;;;;;;;;;;;21.60;38.30;;;;;;5025971;28;19905;-47
2022/02/16 07:16:47;;;;;;;;;;;21.60;38.20;;;;;;5045815;28;19916;-45
2022/02/16 07:19:13;;;;;;;;;;;21.60;38.30;;;;;;5020659;28;19905;-47
2022/02/16 07:21:43;;;;;;;;;;;21.60;38.30;;;;;;5017941;28;19963;-48
2022/02/16 07:24:08;;;;;;;;;;;21.60;38.30;;;;;;5047320;28;19963;-46
2022/02/16 07:26:34;;;;;;;;;;;21.60;38.30;;;;;;5039702;28;19905;-46
2022/02/16 07:29:00;;;;;;;;;;;21.60;38.40;;;;;;5026423;28;19915;-45
2022/02/16 07:31:28;;;;;;;;;;;21.60;38.40;;;;;;5022688;28;19970;-45
2022/02/16 07:33:53;;;;;;;;;;;21.60;38.40;;;;;;5030536;28;20347;-47
2022/02/16 07:36:20;;;;;;;;;;;21.60;38.40;;;;;;5019063;28;20063;-45
2022/02/16 07:38:46;;;;;;;;;;;21.50;38.40;;;;;;5031470;28;19917;-46
2022/02/16 07:41:12;;;;;;;;;;;21.50;38.50;;;;;;5024945;28;20307;-47
2022/02/16 07:43:49;;;;;;;;;;;21.60;38.50;;;;;;5028227;28;19927;-50
2022/02/16 07:46:37;;;;;;;;;;;21.60;38.60;;;;;;5037420;28;19988;-49
2022/02/16 07:49:03;;;;;;;;;;;21.50;38.60;;;;;;5025870;28;20058;-51
2022/02/16 07:51:49;;;;;;;;;;;21.50;38.80;;;;;;5048381;28;19958;-44
2022/02/16 07:54:23;;;;;;;;;;;21.50;38.90;;;;;;5028241;28;19905;-48
2022/02/16 07:57:02;;;;;;;;;;;21.50;39.00;;;;;;5027464;28;20235;-45
2022/02/16 07:59:28;;;;;;;;;;;21.60;39.10;;;;;;5035599;28;19905;-47
2022/02/16 08:01:58;;;;;;;;;;;21.60;39.10;;;;;;5024676;28;20263;-47
2022/02/16 08:04:24;;;;;;;;;;;21.70;39.00;;;;;;5034892;28;20343;-48
2022/02/16 08:06:56;;;;;;;;;;;21.80;39.00;;;;;;5031007;28;19905;-43
2022/02/16 08:09:22;;;;;;;;;;;21.80;38.90;;;;;;5034921;28;19928;-48
2022/02/16 08:11:48;;;;;;;;;;;22.00;39.00;;;;;;5022213;28;19904;-47
2022/02/16 08:14:13;;;;;;;;;;;22.00;38.90;;;;;;5028966;28;19917;-46
2022/02/16 08:16:48;;;;;;;;;;;22.10;38.90;;;;;;5026914;28;19904;-47
2022/02/16 08:19:14;;;;;;;;;;;22.20;38.80;;;;;;5038091;28;19905;-50
2022/02/16 08:21:42;;;;;;;;;;;22.20;38.80;;;;;;5034036;28;20328;-50
2022/02/16 08:24:08;;;;;;;;;;;22.30;38.80;;;;;;5037021;28;20019;-44
2022/02/16 08:26:35;;;;;;;;;;;22.40;38.80;;;;;;5019810;28;19915;-47
2022/02/16 08:29:02;;;;;;;;;;;22.50;38.80;;;;;;5033548;28;19909;-44
2022/02/16 08:31:27;;;;;;;;;;;22.60;38.70;;;;;;5030387;28;20217;-48
2022/02/16 08:34:08;;;;;;;;;;;22.60;38.70;;;;;;5030890;28;20351;-48
2022/02/16 08:36:44;;;;;;;;;;;22.70;38.60;;;;;;5028601;28;19915;-47
2022/02/16 08:39:10;;;;;;;;;;;22.80;38.70;;;;;;5034497;28;19930;-48
2022/02/16 08:41:36;;;;;;;;;;;22.80;38.60;;;;;;5047601;28;19915;-46
2022/02/16 08:44:02;;;;;;;;;;;22.90;38.50;;;;;;5037766;28;20407;-47
2022/02/16 08:46:28;;;;;;;;;;;23.00;38.50;;;;;;5041027;28;20002;-47
2022/02/16 08:48:53;;;;;;;;;;;23.00;38.50;;;;;;5050086;28;19916;-48
2022/02/16 08:51:20;;;;;;;;;;;23.00;38.50;;;;;;5036132;28;19905;-48
2022/02/16 08:53:45;;;;;;;;;;;23.10;38.60;;;;;;5038730;28;19912;-48
2022/02/16 08:56:11;;;;;;;;;;;23.10;38.50;;;;;;5041148;28;20327;-49
2022/02/16 08:58:37;;;;;;;;;;;23.20;38.60;;;;;;5040436;28;19927;-46
2022/02/16 09:01:03;;;;;;;;;;;23.20;38.50;;;;;;5053408;28;19970;-47
2022/02/16 09:03:29;;;;;;;;;;;23.30;38.50;;;;;;5054713;28;19931;-46
2022/02/16 09:05:55;;;;;;;;;;;23.30;38.40;;;;;;5054068;28;20698;-44
2022/02/16 09:08:21;;;;;;;;;;;23.30;38.40;;;;;;5048807;28;19963;-44
2022/02/16 09:10:47;;;;;;;;;;;23.40;38.50;;;;;;5050292;28;20296;-46
2022/02/16 09:13:12;;;;;;;;;;;23.40;38.40;;;;;;5052369;28;19970;-48
2022/02/16 09:15:40;;;;;;;;;;;23.50;38.50;;;;;;5058154;28;19904;-49
2022/02/16 09:18:11;;;;;;;;;;;23.50;38.50;;;;;;5057450;28;19962;-47
2022/02/16 09:20:37;;;;;;;;;;;23.60;38.60;;;;;;5051697;28;19928;-48
2022/02/16 09:23:03;;;;;;;;;;;23.60;38.70;;;;;;5057709;28;19995;-48
2022/02/16 09:25:30;;;;;;;;;;;23.70;38.90;;;;;;5038308;28;20245;-50
2022/02/16 09:27:56;;;;;;;;;;;23.70;39.10;;;;;;5042906;28;20263;-46
2022/02/16 09:30:21;;;;;;;;;;;23.80;39.30;;;;;;5049344;28;19909;-45
2022/02/16 09:32:47;;;;;;;;;;;23.90;39.60;;;;;;5055652;28;20236;-43
2022/02/16 09:35:13;;;;;;;;;;;23.90;39.70;;;;;;5058290;28;19916;-44
2022/02/16 09:37:39;;;;;;;;;;;24.00;39.80;;;;;;5047097;28;19905;-52
2022/02/16 09:40:05;;;;;;;;;;;24.00;39.90;;;;;;5057627;28;20390;-46
2022/02/16 09:42:31;;;;;;;;;;;24.00;39.80;;;;;;5057004;28;19928;-44
2022/02/16 09:45:00;;;;;;;;;;;24.00;39.80;;;;;;5057739;28;20331;-44
2022/02/16 09:47:26;;;;;;;;;;;24.00;39.80;;;;;;5040959;28;19980;-43
2022/02/16 09:49:52;;;;;;;;;;;24.00;39.80;;;;;;5057768;28;19931;-45
2022/02/16 09:52:20;;;;;;;;;;;24.00;39.80;;;;;;5056166;28;20011;-49
2022/02/16 09:54:45;;;;;;;;;;;24.00;39.80;;;;;;5057367;28;19904;-48
2022/02/16 09:57:11;;;;;;;;;;;24.00;39.70;;;;;;5056433;28;19918;-49
2022/02/16 09:59:37;;;;;;;;;;;24.00;39.70;;;;;;5057045;28;19944;-48
2022/02/16 10:02:04;;;;;;;;;;;24.00;39.70;;;;;;5054984;28;19916;-44
2022/02/16 10:04:31;;;;;;;;;;;24.00;39.70;;;;;;5032931;28;19915;-48
2022/02/16 10:06:57;;;;;;;;;;;24.00;39.70;;;;;;5047278;28;19928;-45
2022/02/16 10:09:27;;;;;;;;;;;24.00;39.70;;;;;;5044706;28;19905;-47
2022/02/16 10:11:55;;;;;;;;;;;24.00;39.70;;;;;;5045554;28;20224;-48
2022/02/16 10:14:24;;;;;;;;;;;23.90;39.70;;;;;;5042762;28;20299;-45
2022/02/16 10:16:50;;;;;;;;;;;23.90;39.70;;;;;;5055878;28;19974;-46
2022/02/16 10:19:16;;;;;;;;;;;23.90;39.70;;;;;;5057006;28;19905;-45
2022/02/16 10:22:01;;;;;;;;;;;23.80;39.70;;;;;;5056994;28;19908;-45
2022/02/16 10:24:27;;;;;;;;;;;23.80;39.70;;;;;;5056804;28;19916;-47
2022/02/16 10:26:54;;;;;;;;;;;23.70;39.70;;;;;;5056575;28;20339;-46
2022/02/16 10:29:20;;;;;;;;;;;23.70;39.70;;;;;;5056916;28;19927;-43
2022/02/16 10:31:46;;;;;;;;;;;23.70;39.70;;;;;;5056855;28;20346;-43
2022/02/16 10:34:12;;;;;;;;;;;23.60;39.70;;;;;;5056555;28;19905;-45
2022/02/16 10:36:38;;;;;;;;;;;23.60;39.80;;;;;;5056810;28;19905;-46
2022/02/16 10:39:07;;;;;;;;;;;23.60;39.80;;;;;;5056911;28;19998;-42
2022/02/16 10:41:43;;;;;;;;;;;23.50;39.80;;;;;;5056693;28;19905;-46
2022/02/16 10:44:16;;;;;;;;;;;23.50;39.90;;;;;;5057029;28;19909;-48
2022/02/16 10:46:42;;;;;;;;;;;23.40;39.90;;;;;;5056259;28;19991;-45
2022/02/16 10:49:11;;;;;;;;;;;23.40;39.90;;;;;;5056045;28;19947;-43
2022/02/16 10:51:37;;;;;;;;;;;23.40;39.90;;;;;;5056747;28;20290;-45
2022/02/16 10:54:10;;;;;;;;;;;23.40;39.90;;;;;;5055861;28;20017;-44
2022/02/16 10:56:36;;;;;;;;;;;23.40;39.90;;;;;;5056548;28;19905;-43
2022/02/16 10:59:02;;;;;;;;;;;23.40;39.90;;;;;;5056816;28;20239;-45
2022/02/16 11:01:28;;;;;;;;;;;23.40;39.90;;;;;;5055621;28;19960;-45
2022/02/16 11:03:54;;;;;;;;;;;23.30;39.90;;;;;;5055919;28;20366;-47
2022/02/16 11:06:21;;;;;;;;;;;23.30;39.90;;;;;;5054020;28;19904;-44
2022/02/16 11:08:49;;;;;;;;;;;23.30;40.00;;;;;;5048216;28;19909;-46
2022/02/16 11:11:16;;;;;;;;;;;23.30;40.00;;;;;;5037098;28;19905;-46
2022/02/16 11:13:42;;;;;;;;;;;23.20;40.00;;;;;;5051161;28;19917;-43
2022/02/16 11:16:08;;;;;;;;;;;23.20;40.10;;;;;;5055479;28;20288;-48
2022/02/16 11:18:47;;;;;;;;;;;23.20;40.10;;;;;;5056227;28;19905;-45
2022/02/16 11:21:17;;;;;;;;;;;23.20;40.20;;;;;;5044853;28;20200;-44
2022/02/16 11:23:47;;;;;;;;;;;23.20;40.20;;;;;;5049302;28;19953;-44
2022/02/16 11:26:31;;;;;;;;;;;23.20;40.30;;;;;;5051441;28;19956;-46
2022/02/16 11:28:59;;;;;;;;;;;23.10;40.20;;;;;;5035376;28;19905;-46
2022/02/16 11:31:29;;;;;;;;;;;23.10;40.20;;;;;;5037230;28;19916;-46
2022/02/16 11:34:13;;;;;;;;;;;23.10;40.20;;;;;;5035739;28;19936;-46
2022/02/16 11:36:47;;;;;;;;;;;23.10;40.30;;;;;;5036619;28;19905;-47
2022/02/16 11:39:31;;;;;;;;;;;23.10;40.40;;;;;;5041160;28;19995;-47
2022/02/16 11:41:57;;;;;;;;;;;23.10;40.50;;;;;;5053779;28;20319;-49
2022/02/16 11:44:23;;;;;;;;;;;23.10;40.70;;;;;;5041877;28;20000;-48
2022/02/16 11:46:54;;;;;;;;;;;23.20;40.80;;;;;;5040068;28;19924;-42
2022/02/16 11:49:25;;;;;;;;;;;23.10;40.90;;;;;;5054712;28;20323;-44
2022/02/16 11:51:51;;;;;;;;;;;23.10;40.90;;;;;;5054381;28;20007;-42
2022/02/16 11:54:42;;;;;;;;;;;23.10;40.90;;;;;;5046959;28;19905;-43
2022/02/16 11:57:26;;;;;;;;;;;23.10;40.90;;;;;;5046238;28;19905;-50
2022/02/16 11:59:55;;;;;;;;;;;23.10;40.90;;;;;;5054443;28;19917;-48
2022/02/16 12:02:21;;;;;;;;;;;23.10;40.90;;;;;;5055063;28;19904;-43
2022/02/16 12:04:52;;;;;;;;;;;23.00;40.90;;;;;;5053447;28;19966;-45
2022/02/16 12:07:25;;;;;;;;;;;23.00;40.90;;;;;;5047931;28;19952;-49
2022/02/16 12:10:10;;;;;;;;;;;23.00;40.90;;;;;;5037074;28;20333;-43
2022/02/16 12:12:35;;;;;;;;;;;23.00;41.00;;;;;;5035686;28;19920;-45
2022/02/16 12:15:01;;;;;;;;;;;22.90;40.90;;;;;;5041827;28;19905;-45
2022/02/16 12:17:27;;;;;;;;;;;22.90;41.00;;;;;;5054977;28;20247;-46
2022/02/16 12:19:53;;;;;;;;;;;22.90;41.00;;;;;;5049133;28;19971;-42
2022/02/16 12:22:21;;;;;;;;;;;22.90;41.00;;;;;;5046720;28;19905;-43
2022/02/16 12:24:47;;;;;;;;;;;22.90;41.00;;;;;;5036251;28;20019;-41
2022/02/16 12:27:15;;;;;;;;;;;22.80;41.00;;;;;;5035197;28;19905;-43
2022/02/16 12:29:41;;;;;;;;;;;22.90;41.10;;;;;;5035477;28;19912;-44
2022/02/16 12:32:08;;;;;;;;;;;22.90;41.10;;;;;;5035384;28;19917;-47
2022/02/16 12:34:34;;;;;;;;;;;22.90;41.10;;;;;;5035514;28;19915;-42
2022/02/16 12:37:00;;;;;;;;;;;22.90;41.10;;;;;;5054258;28;19926;-43
2022/02/16 12:39:27;;;;;;;;;;;22.90;41.00;;;;;;5056427;28;20217;-43
2022/02/16 12:41:53;;;;;;;;;;;22.80;40.90;;;;;;5058283;28;19904;-45
2022/02/16 12:44:20;;;;;;;;;;;22.90;41.00;;;;;;5059591;28;19915;-46
2022/02/16 12:46:48;;;;;;;;;;;22.80;40.90;;;;;;5040459;28;19905;-42
2022/02/16 12:49:15;;;;;;;;;;;22.80;40.90;;;;;;5041168;28;19954;-45
2022/02/16 12:51:42;;;;;;;;;;;22.80;40.90;;;;;;5058177;28;19904;-46
2022/02/16 12:54:16;;;;;;;;;;;22.90;40.90;;;;;;5058754;28;19912;-43
2022/02/16 12:56:43;;;;;;;;;;;22.80;40.80;;;;;;5054190;28;19923;-44
2022/02/16 12:59:10;;;;;;;;;;;22.80;40.80;;;;;;5041422;28;19905;-42
2022/02/16 13:01:41;;;;;;;;;;;22.80;40.80;;;;;;5040073;28;20291;-44
2022/02/16 13:04:06;;;;;;;;;;;22.80;40.80;;;;;;5058925;28;20319;-42
2022/02/16 13:06:39;;;;;;;;;;;22.80;40.80;;;;;;5044987;28;19905;-44
2022/02/16 13:09:04;;;;;;;;;;;22.80;40.70;;;;;;5038437;28;19944;-43
2022/02/16 13:11:44;;;;;;;;;;;22.80;40.70;;;;;;5053368;28;19916;-43
2022/02/16 13:14:10;;;;;;;;;;;22.80;40.70;;;;;;5058282;28;19920;-45
2022/02/16 13:16:35;;;;;;;;;;;22.80;40.80;;;;;;5047450;28;20308;-44
2022/02/16 13:19:02;;;;;;;;;;;22.90;40.90;;;;;;5048391;28;19920;-44
2022/02/16 13:21:29;;;;;;;;;;;22.80;40.80;;;;;;5052098;28;20312;-46
2022/02/16 13:24:02;;;;;;;;;;;22.80;40.80;;;;;;5038081;28;19999;-45
2022/02/16 13:26:35;;;;;;;;;;;22.80;40.90;;;;;;5043489;28;20289;-42
2022/02/16 13:29:02;;;;;;;;;;;22.80;40.90;;;;;;5048086;28;20398;-46
2022/02/16 13:31:33;;;;;;;;;;;22.80;41.00;;;;;;5038242;28;19905;-46
2022/02/16 13:34:00;;;;;;;;;;;22.70;41.00;;;;;;5054778;28;20236;-43
2022/02/16 13:36:36;;;;;;;;;;;22.70;41.10;;;;;;5057128;28;20247;-44
2022/02/16 13:39:16;;;;;;;;;;;22.70;41.10;;;;;;5058441;28;20225;-43
2022/02/16 13:41:52;;;;;;;;;;;22.70;41.20;;;;;;5032537;28;19921;-45
2022/02/16 13:44:21;;;;;;;;;;;22.70;41.10;;;;;;5038885;28;19967;-47
2022/02/16 13:46:49;;;;;;;;;;;22.70;41.10;;;;;;5048910;28;19904;-43
2022/02/16 13:49:16;;;;;;;;;;;22.80;41.10;;;;;;5055835;28;19936;-45
2022/02/16 13:51:47;;;;;;;;;;;22.80;41.00;;;;;;5061457;28;19909;-42
2022/02/16 13:54:22;;;;;;;;;;;22.80;40.90;;;;;;5077502;28;20260;-43
2022/02/16 13:56:50;;;;;;;;;;;22.80;40.80;;;;;;5061908;28;19904;-45
2022/02/16 13:59:16;;;;;;;;;;;22.80;40.80;;;;;;5057270;28;19904;-48
2022/02/16 14:01:42;;;;;;;;;;;22.80;40.90;;;;;;5055832;28;19905;-49
2022/02/16 14:04:09;;;;;;;;;;;22.90;40.70;;;;;;5053553;28;19904;-45
2022/02/16 14:06:35;;;;;;;;;;;22.90;40.60;;;;;;5045616;28;19905;-43
2022/02/16 14:09:05;;;;;;;;;;;22.90;40.60;;;;;;5053328;28;19984;-45
2022/02/16 14:11:32;;;;;;;;;;;22.90;40.70;;;;;;5054945;28;19915;-49
2022/02/16 14:13:57;;;;;;;;;;;23.00;40.70;;;;;;5077567;28;19912;-51
2022/02/16 14:16:26;;;;;;;;;;;23.00;40.70;;;;;;5068403;28;19905;-48
2022/02/16 14:21:36;;;;;;;;;;;23.10;40.70;;;;;;5057036;28;19958;-46
2022/02/16 14:24:02;;;;;;;;;;;23.10;40.60;;;;;;5057186;28;19999;-49